createdAt,value
2023-01-18T00:00:46.429Z,75.58
2023-01-18T00:03:54.487Z,74.68
2023-01-18T00:07:02.514Z,75.89
2023-01-18T00:10:12.088Z,75.29
2023-01-18T00:13:21.520Z,75.86
2023-01-18T00:16:31.288Z,75.73
2023-01-18T00:19:39.406Z,76.12
2023-01-18T00:22:47.562Z,76.86
2023-01-18T00:25:59.977Z,76.47
2023-01-18T00:29:10.310Z,76.46
2023-01-18T00:32:18.370Z,75.96
2023-01-18T00:35:27.241Z,75.75
2023-01-18T00:38:35.311Z,77.55
2023-01-18T00:42:03.630Z,77.39
2023-01-18T00:45:12.838Z,75.91
2023-01-18T00:48:21.001Z,75.36
2023-01-18T00:51:29.138Z,76.64
2023-01-18T00:54:37.488Z,77.00
2023-01-18T00:57:45.563Z,76.27
2023-01-18T01:00:55.358Z,77.30
2023-01-18T01:04:21.139Z,76.27
2023-01-18T01:07:29.316Z,77.15
2023-01-18T01:10:37.466Z,77.36
2023-01-18T01:14:03.446Z,77.30
2023-01-18T01:17:30.640Z,76.93
2023-01-18T01:20:56.470Z,77.54
2023-01-18T01:24:22.847Z,78.52
2023-01-18T01:27:30.971Z,77.59
2023-01-18T01:30:39.155Z,78.38
2023-01-18T01:33:49.980Z,78.02
2023-01-18T01:36:58.441Z,78.98
2023-01-18T01:40:08.089Z,78.95
2023-01-18T01:43:16.172Z,77.85
2023-01-18T01:46:36.083Z,78.16
2023-01-18T01:49:52.358Z,77.82
2023-01-18T01:53:00.735Z,79.55
2023-01-18T01:56:10.540Z,79.91
2023-01-18T01:59:19.992Z,79.67
2023-01-18T02:02:31.311Z,79.56
2023-01-18T02:05:48.437Z,79.42
2023-01-18T02:08:56.519Z,78.73
2023-01-18T02:12:06.084Z,76.86
2023-01-18T02:15:14.428Z,77.72
2023-01-18T02:18:32.697Z,77.71
2023-01-18T02:21:47.770Z,77.09
2023-01-18T02:25:29.881Z,77.90
2023-01-18T02:28:46.053Z,79.04
2023-01-18T02:32:14.294Z,78.02
2023-01-18T02:35:37.221Z,79.11
2023-01-18T02:38:48.100Z,78.83
2023-01-18T02:42:21.865Z,79.42
2023-01-18T02:45:53.468Z,78.81
2023-01-18T02:49:09.377Z,77.70
2023-01-18T02:52:41.967Z,78.53
2023-01-18T02:55:57.427Z,78.19
2023-01-18T02:59:12.559Z,77.38
2023-01-18T03:02:24.800Z,77.61
2023-01-18T03:05:36.429Z,78.58
2023-01-18T03:08:48.854Z,77.41
2023-01-18T03:12:07.200Z,78.84
2023-01-18T03:15:25.530Z,78.12
2023-01-18T03:19:00.247Z,78.35
2023-01-18T03:22:08.488Z,78.96
2023-01-18T03:25:22.123Z,78.35
2023-01-18T03:28:52.954Z,78.42
2023-01-18T03:32:26.948Z,77.75
2023-01-18T03:35:39.284Z,77.67
2023-01-18T03:38:54.759Z,76.50
2023-01-18T03:42:10.170Z,75.69
2023-01-18T03:45:27.802Z,76.96
2023-01-18T03:48:37.892Z,76.23
2023-01-18T03:52:02.818Z,76.11
2023-01-18T03:55:17.816Z,76.63
2023-01-18T03:58:36.087Z,76.61
2023-01-18T04:01:46.704Z,75.00
2023-01-18T04:04:57.578Z,74.24
2023-01-18T04:08:07.800Z,74.82
2023-01-18T04:11:16.150Z,74.61
2023-01-18T04:14:26.247Z,73.70
2023-01-18T04:17:34.472Z,73.31
2023-01-18T04:20:42.697Z,71.72
2023-01-18T04:23:52.238Z,72.06
2023-01-18T04:27:00.933Z,73.18
2023-01-18T04:30:11.099Z,71.72
2023-01-18T04:33:20.705Z,71.22
2023-01-18T04:36:29.451Z,71.83
2023-01-18T04:39:39.164Z,72.47
2023-01-18T04:42:54.190Z,72.91
2023-01-18T04:46:02.422Z,72.47
2023-01-18T04:49:15.562Z,72.67
2023-01-18T04:52:24.094Z,71.63
2023-01-18T04:55:33.716Z,72.42
2023-01-18T04:58:42.082Z,72.06
2023-01-18T05:01:50.258Z,72.95
2023-01-18T05:05:00.055Z,73.59
2023-01-18T05:08:08.220Z,73.00
2023-01-18T05:11:20.799Z,73.50
2023-01-18T05:14:29.026Z,73.29
2023-01-18T05:17:37.254Z,74.35
2023-01-18T05:20:45.442Z,74.47
2023-01-18T05:23:54.734Z,74.13
2023-01-18T05:27:04.439Z,75.22
2023-01-18T05:30:13.963Z,74.75
2023-01-18T05:33:23.749Z,75.91
2023-01-18T05:36:32.011Z,75.37
2023-01-18T05:39:40.147Z,75.31
2023-01-18T05:42:49.723Z,76.05
2023-01-18T05:45:58.864Z,76.68
2023-01-18T05:49:07.137Z,77.62
2023-01-18T05:52:15.359Z,77.35
2023-01-18T05:55:23.702Z,77.77
2023-01-18T05:58:33.636Z,77.85
2023-01-18T06:01:42.089Z,77.04
2023-01-18T06:04:50.208Z,76.81
2023-01-18T06:07:58.438Z,76.83
2023-01-18T06:11:07.831Z,77.26
2023-01-18T06:14:17.466Z,76.87
2023-01-18T06:17:25.771Z,76.63
2023-01-18T06:20:34.067Z,77.10
2023-01-18T06:23:42.239Z,76.25
2023-01-18T06:26:50.417Z,76.13
2023-01-18T06:29:59.895Z,76.02
2023-01-18T06:33:08.533Z,76.11
2023-01-18T06:40:01.309Z,75.87
2023-01-18T06:43:14.056Z,74.71
2023-01-18T06:46:24.078Z,74.72
2023-01-18T06:49:32.216Z,75.54
2023-01-18T06:52:41.496Z,75.07
2023-01-18T06:55:57.879Z,75.05
2023-01-18T06:59:08.411Z,75.63
2023-01-18T07:02:18.170Z,74.36
2023-01-18T07:05:26.329Z,74.89
2023-01-18T07:08:35.548Z,74.33
2023-01-18T07:11:43.822Z,74.78
2023-01-18T07:14:52.347Z,74.20
2023-01-18T07:18:01.794Z,72.95
2023-01-18T07:21:12.779Z,72.51
2023-01-18T07:24:23.199Z,71.15
2023-01-18T07:27:31.902Z,71.25
2023-01-18T07:30:40.232Z,71.49
2023-01-18T07:33:49.819Z,71.30
2023-01-18T07:36:57.927Z,70.02
2023-01-18T07:40:08.317Z,69.81
2023-01-18T07:43:18.232Z,69.40
2023-01-18T07:46:26.890Z,68.87
2023-01-18T07:49:36.398Z,69.64
2023-01-18T07:52:45.151Z,68.82
2023-01-18T07:55:54.129Z,68.43
2023-01-18T07:59:02.637Z,68.75
2023-01-18T08:02:14.501Z,68.32
2023-01-18T08:05:26.844Z,68.27
2023-01-18T08:08:36.054Z,67.51
2023-01-18T08:11:44.292Z,66.61
2023-01-18T08:14:52.503Z,66.12
2023-01-18T08:18:03.556Z,65.65
2023-01-18T08:21:14.355Z,65.26
2023-01-18T08:24:22.429Z,64.51
2023-01-18T08:27:30.563Z,63.87
2023-01-18T08:30:41.120Z,63.68
2023-01-18T08:33:50.937Z,63.44
2023-01-18T08:37:00.352Z,62.30
2023-01-18T08:40:10.515Z,62.08
2023-01-18T08:43:18.611Z,62.87
2023-01-18T08:46:27.430Z,62.25
2023-01-18T08:49:35.738Z,61.70
2023-01-18T08:52:45.164Z,62.04
2023-01-18T08:55:53.271Z,61.11
2023-01-18T08:59:02.627Z,60.98
2023-01-18T09:02:11.054Z,60.86
2023-01-18T09:05:19.187Z,61.53
2023-01-18T09:08:28.781Z,60.34
2023-01-18T09:11:38.387Z,60.79
2023-01-18T09:14:46.695Z,61.15
2023-01-18T09:17:54.877Z,61.97
2023-01-18T09:21:08.419Z,61.66
2023-01-18T09:24:18.251Z,62.81
2023-01-18T09:27:26.481Z,63.02
2023-01-18T09:30:35.859Z,64.01
2023-01-18T09:33:52.443Z,63.33
2023-01-18T09:37:01.333Z,63.28
2023-01-18T09:40:18.509Z,63.70
2023-01-18T09:43:39.034Z,63.02
2023-01-18T09:46:54.648Z,60.57
2023-01-18T09:50:14.765Z,60.61
2023-01-18T09:53:50.787Z,60.84
2023-01-18T09:57:09.785Z,58.66
2023-01-18T10:00:25.368Z,57.77
2023-01-18T10:03:45.949Z,57.39
2023-01-18T10:06:59.169Z,56.73
2023-01-18T10:10:15.969Z,56.93
2023-01-18T10:13:47.474Z,56.94
2023-01-18T10:17:01.796Z,57.53
2023-01-18T10:20:21.316Z,56.60
2023-01-18T10:23:39.426Z,57.15
2023-01-18T10:26:54.330Z,56.24
2023-01-18T10:30:28.937Z,55.65
2023-01-18T10:33:42.151Z,56.02
2023-01-18T10:36:55.450Z,55.71
2023-01-18T10:40:07.659Z,56.50
2023-01-18T10:43:20.512Z,56.85
2023-01-18T10:46:30.338Z,59.54
2023-01-18T10:49:42.469Z,59.39
2023-01-18T10:52:53.664Z,60.89
2023-01-18T10:56:07.645Z,61.19
2023-01-18T10:59:29.849Z,61.11
2023-01-18T11:02:43.927Z,61.51
2023-01-18T11:05:53.441Z,60.82
2023-01-18T11:09:01.995Z,61.06
2023-01-18T11:12:38.209Z,60.96
2023-01-18T11:15:46.432Z,61.45
2023-01-18T11:19:02.818Z,60.62
2023-01-18T11:22:13.694Z,60.13
2023-01-18T11:25:23.217Z,59.47
2023-01-18T11:28:40.465Z,59.97
2023-01-18T11:31:51.173Z,60.95
2023-01-18T11:35:01.677Z,60.57
2023-01-18T11:38:19.562Z,62.10
2023-01-18T11:41:27.781Z,62.28
2023-01-18T11:44:43.141Z,61.29
2023-01-18T11:48:02.364Z,61.76
2023-01-18T11:51:26.817Z,62.35
2023-01-18T11:54:42.875Z,62.21
2023-01-18T11:57:53.121Z,61.31
2023-01-18T12:01:30.572Z,62.18
2023-01-18T12:05:02.858Z,62.67
2023-01-18T12:08:53.125Z,61.79
2023-01-18T12:12:28.595Z,62.03
2023-01-18T12:16:03.418Z,62.37
2023-01-18T12:19:54.621Z,63.57
2023-01-18T12:23:49.175Z,65.15
2023-01-18T12:27:02.930Z,66.18
2023-01-18T12:30:40.114Z,67.63
2023-01-18T12:34:01.292Z,67.22
2023-01-18T12:37:35.254Z,68.33
2023-01-18T12:41:16.316Z,67.76
2023-01-18T12:44:54.758Z,67.12
2023-01-18T12:48:16.644Z,65.65
2023-01-18T12:51:30.235Z,64.15
2023-01-18T12:54:45.831Z,64.72
2023-01-18T12:58:00.268Z,64.65
2023-01-18T13:01:16.516Z,64.44
2023-01-18T13:04:32.652Z,62.72
2023-01-18T13:07:46.885Z,64.00
2023-01-18T13:11:07.585Z,62.21
2023-01-18T13:14:26.351Z,62.27
2023-01-18T13:17:47.115Z,62.27
2023-01-18T13:21:12.441Z,61.87
2023-01-18T13:24:37.403Z,61.60
2023-01-18T13:27:59.702Z,62.75
2023-01-18T13:31:09.639Z,62.96
2023-01-18T13:34:47.604Z,63.54
2023-01-18T13:37:59.948Z,65.01
2023-01-18T13:41:12.724Z,65.55
2023-01-18T13:44:32.436Z,66.00
2023-01-18T13:47:53.893Z,67.24
2023-01-18T13:51:02.089Z,67.92
2023-01-18T13:54:12.637Z,68.16
2023-01-18T13:57:27.930Z,67.77
2023-01-18T14:00:36.952Z,68.19
2023-01-18T14:03:51.062Z,67.65
2023-01-18T14:07:03.934Z,68.46
2023-01-18T14:10:30.435Z,69.81
2023-01-18T14:14:03.253Z,69.18
2023-01-18T14:17:17.379Z,69.18
2023-01-18T14:20:57.890Z,68.88
2023-01-18T14:24:43.158Z,69.39
2023-01-18T14:28:05.026Z,69.03
2023-01-18T14:31:25.406Z,68.50
2023-01-18T14:34:43.100Z,67.30
2023-01-18T14:37:53.030Z,68.02
2023-01-18T14:41:07.459Z,68.85
2023-01-18T14:44:20.398Z,68.05
2023-01-18T14:47:33.828Z,68.02
2023-01-18T14:50:47.029Z,68.49
2023-01-18T14:54:00.677Z,68.23
2023-01-18T14:57:15.550Z,68.39
2023-01-18T15:00:25.260Z,67.56
2023-01-18T15:03:33.615Z,66.67
2023-01-18T15:06:46.912Z,66.53
2023-01-18T15:09:58.933Z,66.58
2023-01-18T15:13:08.336Z,66.24
2023-01-18T15:16:21.658Z,66.57
2023-01-18T15:19:43.408Z,66.95
2023-01-18T15:22:54.636Z,68.89
2023-01-18T15:26:06.229Z,68.24
2023-01-18T15:29:17.718Z,68.77
2023-01-18T15:32:30.012Z,68.44
2023-01-18T15:35:38.478Z,68.12
2023-01-18T15:38:46.924Z,69.16
2023-01-18T15:42:02.437Z,68.89
2023-01-18T15:45:20.546Z,69.54
2023-01-18T15:48:40.025Z,68.45
2023-01-18T15:51:56.417Z,69.41
2023-01-18T15:55:08.617Z,68.54
2023-01-18T15:58:30.181Z,68.99
2023-01-18T16:01:38.497Z,68.49
2023-01-18T16:04:47.577Z,69.04
2023-01-18T16:08:20.206Z,68.35
2023-01-18T16:11:33.279Z,68.96
2023-01-18T16:14:46.260Z,69.14
2023-01-18T16:18:03.074Z,69.01
2023-01-18T16:21:20.001Z,68.62
2023-01-18T16:24:35.125Z,69.87
2023-01-18T16:27:51.326Z,68.68
2023-01-18T16:31:03.412Z,69.71
2023-01-18T16:34:25.647Z,68.21
2023-01-18T16:37:34.247Z,70.37
2023-01-18T16:40:46.267Z,69.38
2023-01-18T16:43:54.864Z,68.88
2023-01-18T16:47:04.409Z,68.81
2023-01-18T16:50:16.014Z,68.44
2023-01-18T16:53:24.450Z,68.49
2023-01-18T16:56:32.555Z,68.55
2023-01-18T16:59:40.651Z,68.42
2023-01-18T17:02:50.726Z,68.26
2023-01-18T17:05:59.073Z,68.32
2023-01-18T17:09:21.091Z,68.39
2023-01-18T17:12:29.281Z,68.80
2023-01-18T17:15:41.599Z,68.08
2023-01-18T17:18:51.170Z,67.96
2023-01-18T17:21:59.427Z,68.13
2023-01-18T17:25:08.884Z,68.57
2023-01-18T17:28:19.688Z,68.37
2023-01-18T17:31:28.371Z,68.46
2023-01-18T17:34:37.941Z,68.05
2023-01-18T17:37:46.197Z,68.91
2023-01-18T17:40:54.391Z,68.06
2023-01-18T17:44:03.967Z,68.51
2023-01-18T17:47:12.181Z,68.29
2023-01-18T17:50:24.878Z,68.87
2023-01-18T17:53:33.326Z,68.17
2023-01-18T17:56:41.573Z,67.62
2023-01-18T17:59:55.490Z,68.72
2023-01-18T18:03:04.241Z,69.13
2023-01-18T18:06:26.127Z,67.80
2023-01-18T18:09:40.694Z,68.88
2023-01-18T18:12:49.275Z,67.73
2023-01-18T18:15:58.053Z,69.13
2023-01-18T18:19:06.337Z,69.51
2023-01-18T18:22:16.158Z,68.61
2023-01-18T18:25:24.262Z,68.93
2023-01-18T18:28:34.660Z,69.55
2023-01-18T18:31:43.967Z,68.93
2023-01-18T18:34:52.813Z,70.12
2023-01-18T18:38:02.282Z,68.78
2023-01-18T18:41:10.613Z,70.04
2023-01-18T18:44:18.726Z,69.37
2023-01-18T18:47:27.000Z,69.90
2023-01-18T18:50:36.270Z,70.90
2023-01-18T18:53:45.807Z,70.23
2023-01-18T18:56:54.252Z,70.93
2023-01-18T19:00:02.674Z,70.28
2023-01-18T19:03:11.172Z,70.44
2023-01-18T19:06:22.802Z,70.64
2023-01-18T19:09:33.191Z,72.26
2023-01-18T19:12:41.452Z,73.04
2023-01-18T19:15:51.233Z,73.63
2023-01-18T19:18:59.423Z,73.55
2023-01-18T19:22:07.628Z,73.93
2023-01-18T19:25:18.031Z,73.78
2023-01-18T19:28:26.412Z,73.16
2023-01-18T19:31:34.543Z,72.72
2023-01-18T19:34:42.728Z,72.20
2023-01-18T19:37:51.405Z,72.47
2023-01-18T19:41:03.035Z,72.06
2023-01-18T19:44:12.776Z,72.32
2023-01-18T19:47:20.897Z,71.94
2023-01-18T19:50:31.299Z,72.69
2023-01-18T19:53:40.296Z,72.71
2023-01-18T19:56:51.309Z,73.16
2023-01-18T20:00:03.957Z,72.76
2023-01-18T20:03:20.583Z,72.92
2023-01-18T20:06:28.984Z,71.73
2023-01-18T20:09:43.244Z,72.84
2023-01-18T20:12:53.657Z,73.38
2023-01-18T20:16:02.063Z,72.99
2023-01-18T20:19:14.063Z,71.87
2023-01-18T20:22:23.731Z,71.22
2023-01-18T20:25:33.473Z,72.42
2023-01-18T20:28:44.299Z,72.06
2023-01-18T20:31:55.173Z,72.07
2023-01-18T20:35:06.596Z,72.04
2023-01-18T20:38:14.846Z,71.59
2023-01-18T20:41:23.315Z,71.84
2023-01-18T20:44:33.043Z,72.95
2023-01-18T20:47:42.609Z,72.60
2023-01-18T20:50:51.319Z,72.41
2023-01-18T20:53:59.932Z,72.16
2023-01-18T20:57:09.466Z,72.05
2023-01-18T21:00:21.109Z,72.58
2023-01-18T21:03:29.624Z,71.91
2023-01-18T21:06:37.995Z,71.96
2023-01-18T21:09:47.407Z,72.48
2023-01-18T21:12:55.917Z,72.10
2023-01-18T21:16:06.942Z,72.32
2023-01-18T21:19:15.961Z,71.80
2023-01-18T21:22:24.856Z,72.67
2023-01-18T21:25:33.445Z,72.46
2023-01-18T21:28:42.307Z,73.14
2023-01-18T21:31:52.002Z,73.77
2023-01-18T21:35:00.427Z,74.05
2023-01-18T21:38:08.677Z,74.19
2023-01-18T21:41:34.883Z,75.76
2023-01-18T21:45:01.006Z,76.53
2023-01-18T21:48:14.299Z,76.70
2023-01-18T21:51:40.048Z,76.32
2023-01-18T21:54:48.596Z,76.37
2023-01-18T21:58:14.486Z,77.80
2023-01-18T22:01:25.856Z,77.25
2023-01-18T22:04:53.433Z,77.18
2023-01-18T22:08:01.867Z,77.32
2023-01-18T22:11:10.263Z,76.93
2023-01-18T22:14:18.776Z,77.61
2023-01-18T22:17:27.110Z,76.54
2023-01-18T22:20:37.632Z,77.92
2023-01-18T22:23:46.380Z,77.25
2023-01-18T22:26:54.655Z,77.48
2023-01-18T22:30:02.860Z,77.12
2023-01-18T22:33:10.937Z,77.64
2023-01-18T22:36:20.746Z,77.58
2023-01-18T22:39:28.796Z,78.56
2023-01-18T22:42:38.079Z,78.57
2023-01-18T22:45:55.958Z,78.51
2023-01-18T22:49:04.185Z,78.40
2023-01-18T22:52:13.759Z,78.40
2023-01-18T22:55:21.866Z,78.35
2023-01-18T22:58:30.837Z,78.99
2023-01-18T23:01:39.043Z,79.28
2023-01-18T23:04:48.341Z,78.80
2023-01-18T23:07:58.275Z,78.69
2023-01-18T23:11:06.714Z,79.61
2023-01-18T23:14:32.905Z,78.99
2023-01-18T23:17:42.247Z,79.48
2023-01-18T23:20:57.657Z,79.78
2023-01-18T23:24:07.802Z,80.02
2023-01-18T23:27:17.151Z,80.32
2023-01-18T23:30:25.636Z,80.68
2023-01-18T23:33:33.942Z,79.93
2023-01-18T23:36:42.169Z,79.50
2023-01-18T23:40:09.281Z,79.49
2023-01-18T23:43:35.053Z,80.15
2023-01-18T23:47:00.920Z,79.89
2023-01-18T23:50:28.411Z,79.58
2023-01-18T23:53:56.164Z,80.00
2023-01-18T23:57:06.336Z,80.08
